sensor_id;sensor_type;location;lat;lon;timestamp;P1;durP1;ratioP1;P2;durP2;ratioP2
2031;SDS011;27625;50.422;7.944;2022-07-05T00:02:36;4.77;;;2.77;;
2031;SDS011;27625;50.422;7.944;2022-07-05T00:05:03;5.10;;;2.57;;
2031;SDS011;27625;50.422;7.944;2022-07-05T00:07:29;7.03;;;3.20;;
2031;SDS011;27625;50.422;7.944;2022-07-05T00:09:56;4.60;;;2.87;;
2031;SDS011;27625;50.422;7.944;2022-07-05T00:12:25;7.43;;;2.80;;
2031;SDS011;27625;50.422;7.944;2022-07-05T00:14:53;5.40;;;2.80;;
2031;SDS011;27625;50.422;7.944;2022-07-05T00:17:19;5.40;;;3.57;;
2031;SDS011;27625;50.422;7.944;2022-07-05T00:19:47;4.53;;;2.70;;
2031;SDS011;27625;50.422;7.944;2022-07-05T00:22:14;4.50;;;2.83;;
2031;SDS011;27625;50.422;7.944;2022-07-05T00:24:40;5.27;;;3.27;;
2031;SDS011;27625;50.422;7.944;2022-07-05T00:27:07;7.10;;;3.20;;
2031;SDS011;27625;50.422;7.944;2022-07-05T00:29:34;7.97;;;2.93;;
2031;SDS011;27625;50.422;7.944;2022-07-05T00:32:00;5.70;;;2.90;;
2031;SDS011;27625;50.422;7.944;2022-07-05T00:34:27;4.73;;;2.93;;
2031;SDS011;27625;50.422;7.944;2022-07-05T00:36:55;5.03;;;3.30;;
2031;SDS011;27625;50.422;7.944;2022-07-05T00:39:21;5.07;;;2.83;;
2031;SDS011;27625;50.422;7.944;2022-07-05T00:41:48;5.43;;;2.80;;
2031;SDS011;27625;50.422;7.944;2022-07-05T00:44:14;4.90;;;3.03;;
2031;SDS011;27625;50.422;7.944;2022-07-05T00:46:42;6.93;;;3.20;;
2031;SDS011;27625;50.422;7.944;2022-07-05T00:49:09;7.17;;;3.50;;
2031;SDS011;27625;50.422;7.944;2022-07-05T00:51:36;4.80;;;3.33;;
2031;SDS011;27625;50.422;7.944;2022-07-05T00:54:06;4.43;;;3.07;;
2031;SDS011;27625;50.422;7.944;2022-07-05T00:56:33;4.60;;;2.83;;
2031;SDS011;27625;50.422;7.944;2022-07-05T00:59:00;6.47;;;3.70;;
2031;SDS011;27625;50.422;7.944;2022-07-05T01:01:27;5.53;;;3.33;;
2031;SDS011;27625;50.422;7.944;2022-07-05T01:03:53;6.43;;;3.43;;
2031;SDS011;27625;50.422;7.944;2022-07-05T01:06:20;5.13;;;3.23;;
2031;SDS011;27625;50.422;7.944;2022-07-05T01:08:46;6.63;;;3.37;;
2031;SDS011;27625;50.422;7.944;2022-07-05T01:11:15;5.93;;;3.63;;
2031;SDS011;27625;50.422;7.944;2022-07-05T01:13:41;4.73;;;3.20;;
2031;SDS011;27625;50.422;7.944;2022-07-05T01:16:08;5.53;;;3.77;;
2031;SDS011;27625;50.422;7.944;2022-07-05T01:18:34;4.40;;;3.30;;
2031;SDS011;27625;50.422;7.944;2022-07-05T01:21:02;5.07;;;3.80;;
2031;SDS011;27625;50.422;7.944;2022-07-05T01:23:31;4.67;;;3.33;;
2031;SDS011;27625;50.422;7.944;2022-07-05T01:25:58;4.97;;;3.47;;
2031;SDS011;27625;50.422;7.944;2022-07-05T01:28:26;7.93;;;4.33;;
2031;SDS011;27625;50.422;7.944;2022-07-05T01:30:54;5.63;;;3.60;;
2031;SDS011;27625;50.422;7.944;2022-07-05T01:33:26;4.97;;;3.20;;
2031;SDS011;27625;50.422;7.944;2022-07-05T01:35:53;5.60;;;4.10;;
2031;SDS011;27625;50.422;7.944;2022-07-05T01:38:20;5.00;;;3.80;;
2031;SDS011;27625;50.422;7.944;2022-07-05T01:40:47;5.60;;;4.00;;
2031;SDS011;27625;50.422;7.944;2022-07-05T01:43:16;4.93;;;3.50;;
2031;SDS011;27625;50.422;7.944;2022-07-05T01:45:43;5.13;;;3.67;;
2031;SDS011;27625;50.422;7.944;2022-07-05T01:48:13;6.77;;;3.50;;
2031;SDS011;27625;50.422;7.944;2022-07-05T01:50:41;5.13;;;3.30;;
2031;SDS011;27625;50.422;7.944;2022-07-05T01:53:11;6.57;;;3.87;;
2031;SDS011;27625;50.422;7.944;2022-07-05T01:55:40;7.90;;;4.30;;
2031;SDS011;27625;50.422;7.944;2022-07-05T01:58:08;7.03;;;3.67;;
2031;SDS011;27625;50.422;7.944;2022-07-05T02:00:41;5.37;;;3.70;;
2031;SDS011;27625;50.422;7.944;2022-07-05T02:03:08;6.67;;;4.00;;
2031;SDS011;27625;50.422;7.944;2022-07-05T02:05:35;7.60;;;3.97;;
2031;SDS011;27625;50.422;7.944;2022-07-05T02:08:01;6.73;;;3.70;;
2031;SDS011;27625;50.422;7.944;2022-07-05T02:10:28;6.40;;;4.10;;
2031;SDS011;27625;50.422;7.944;2022-07-05T02:12:55;6.50;;;3.97;;
2031;SDS011;27625;50.422;7.944;2022-07-05T02:15:23;6.40;;;3.63;;
2031;SDS011;27625;50.422;7.944;2022-07-05T02:17:49;6.10;;;3.67;;
2031;SDS011;27625;50.422;7.944;2022-07-05T02:20:16;5.53;;;3.70;;
2031;SDS011;27625;50.422;7.944;2022-07-05T02:22:42;5.60;;;3.40;;
2031;SDS011;27625;50.422;7.944;2022-07-05T02:25:10;7.53;;;4.10;;
2031;SDS011;27625;50.422;7.944;2022-07-05T02:27:37;4.67;;;3.40;;
2031;SDS011;27625;50.422;7.944;2022-07-05T02:30:03;7.83;;;4.00;;
2031;SDS011;27625;50.422;7.944;2022-07-05T02:32:32;4.97;;;3.70;;
2031;SDS011;27625;50.422;7.944;2022-07-05T02:34:59;5.10;;;4.00;;
2031;SDS011;27625;50.422;7.944;2022-07-05T02:37:25;5.17;;;3.43;;
2031;SDS011;27625;50.422;7.944;2022-07-05T02:39:54;7.10;;;3.90;;
2031;SDS011;27625;50.422;7.944;2022-07-05T02:42:20;9.53;;;4.40;;
2031;SDS011;27625;50.422;7.944;2022-07-05T02:44:47;8.13;;;3.77;;
2031;SDS011;27625;50.422;7.944;2022-07-05T02:47:14;7.97;;;3.73;;
2031;SDS011;27625;50.422;7.944;2022-07-05T02:49:45;5.93;;;3.90;;
2031;SDS011;27625;50.422;7.944;2022-07-05T02:52:11;5.83;;;4.10;;
2031;SDS011;27625;50.422;7.944;2022-07-05T02:54:38;4.73;;;3.20;;
2031;SDS011;27625;50.422;7.944;2022-07-05T02:57:07;5.13;;;4.10;;
2031;SDS011;27625;50.422;7.944;2022-07-05T02:59:33;5.73;;;3.80;;
2031;SDS011;27625;50.422;7.944;2022-07-05T03:02:00;5.50;;;4.00;;
2031;SDS011;27625;50.422;7.944;2022-07-05T03:04:26;6.03;;;3.97;;
2031;SDS011;27625;50.422;7.944;2022-07-05T03:06:54;5.83;;;3.70;;
2031;SDS011;27625;50.422;7.944;2022-07-05T03:09:20;6.00;;;4.47;;
2031;SDS011;27625;50.422;7.944;2022-07-05T03:11:47;6.33;;;4.00;;
2031;SDS011;27625;50.422;7.944;2022-07-05T03:14:13;5.60;;;3.83;;
2031;SDS011;27625;50.422;7.944;2022-07-05T03:16:40;6.80;;;3.87;;
2031;SDS011;27625;50.422;7.944;2022-07-05T03:19:09;10.27;;;4.10;;
2031;SDS011;27625;50.422;7.944;2022-07-05T03:21:35;5.80;;;4.20;;
2031;SDS011;27625;50.422;7.944;2022-07-05T03:24:04;9.23;;;4.27;;
2031;SDS011;27625;50.422;7.944;2022-07-05T03:26:31;5.50;;;4.03;;
2031;SDS011;27625;50.422;7.944;2022-07-05T03:28:57;6.23;;;4.43;;
2031;SDS011;27625;50.422;7.944;2022-07-05T03:31:24;6.37;;;4.10;;
2031;SDS011;27625;50.422;7.944;2022-07-05T03:33:52;6.10;;;4.50;;
2031;SDS011;27625;50.422;7.944;2022-07-05T03:36:18;5.73;;;4.37;;
2031;SDS011;27625;50.422;7.944;2022-07-05T03:38:45;6.40;;;4.50;;
2031;SDS011;27625;50.422;7.944;2022-07-05T03:41:13;8.87;;;4.30;;
2031;SDS011;27625;50.422;7.944;2022-07-05T03:43:42;5.97;;;4.40;;
2031;SDS011;27625;50.422;7.944;2022-07-05T03:46:09;7.07;;;4.43;;
2031;SDS011;27625;50.422;7.944;2022-07-05T03:48:35;9.60;;;5.00;;
2031;SDS011;27625;50.422;7.944;2022-07-05T03:51:01;7.57;;;4.70;;
2031;SDS011;27625;50.422;7.944;2022-07-05T03:53:31;9.13;;;4.37;;
2031;SDS011;27625;50.422;7.944;2022-07-05T03:55:58;9.23;;;4.87;;
2031;SDS011;27625;50.422;7.944;2022-07-05T03:58:26;8.03;;;3.80;;
2031;SDS011;27625;50.422;7.944;2022-07-05T04:00:52;6.30;;;4.00;;
2031;SDS011;27625;50.422;7.944;2022-07-05T04:03:19;6.00;;;3.80;;
2031;SDS011;27625;50.422;7.944;2022-07-05T04:05:45;7.17;;;3.60;;
2031;SDS011;27625;50.422;7.944;2022-07-05T04:08:12;7.30;;;3.97;;
2031;SDS011;27625;50.422;7.944;2022-07-05T04:10:39;6.87;;;4.40;;
2031;SDS011;27625;50.422;7.944;2022-07-05T04:13:05;7.27;;;3.30;;
2031;SDS011;27625;50.422;7.944;2022-07-05T04:15:33;5.97;;;3.40;;
2031;SDS011;27625;50.422;7.944;2022-07-05T04:18:00;5.57;;;3.63;;
2031;SDS011;27625;50.422;7.944;2022-07-05T04:20:26;6.57;;;3.83;;
2031;SDS011;27625;50.422;7.944;2022-07-05T04:22:54;8.13;;;4.00;;
2031;SDS011;27625;50.422;7.944;2022-07-05T04:25:21;5.70;;;3.47;;
2031;SDS011;27625;50.422;7.944;2022-07-05T04:27:48;10.23;;;4.10;;
2031;SDS011;27625;50.422;7.944;2022-07-05T04:30:16;5.63;;;4.10;;
2031;SDS011;27625;50.422;7.944;2022-07-05T04:32:45;6.00;;;3.80;;
2031;SDS011;27625;50.422;7.944;2022-07-05T04:35:12;5.40;;;3.60;;
2031;SDS011;27625;50.422;7.944;2022-07-05T04:37:39;9.20;;;3.80;;
2031;SDS011;27625;50.422;7.944;2022-07-05T04:40:07;5.17;;;3.70;;
2031;SDS011;27625;50.422;7.944;2022-07-05T04:42:44;5.93;;;3.37;;
2031;SDS011;27625;50.422;7.944;2022-07-05T04:45:22;9.93;;;3.53;;
2031;SDS011;27625;50.422;7.944;2022-07-05T04:47:50;5.80;;;3.70;;
2031;SDS011;27625;50.422;7.944;2022-07-05T04:50:17;7.30;;;3.70;;
2031;SDS011;27625;50.422;7.944;2022-07-05T04:52:43;6.47;;;3.80;;
2031;SDS011;27625;50.422;7.944;2022-07-05T04:55:12;7.90;;;3.83;;
2031;SDS011;27625;50.422;7.944;2022-07-05T04:57:38;8.83;;;3.63;;
2031;SDS011;27625;50.422;7.944;2022-07-05T05:00:05;10.50;;;3.67;;
2031;SDS011;27625;50.422;7.944;2022-07-05T05:02:33;6.37;;;3.47;;
2031;SDS011;27625;50.422;7.944;2022-07-05T05:05:02;9.70;;;3.50;;
2031;SDS011;27625;50.422;7.944;2022-07-05T05:07:29;5.73;;;3.00;;
2031;SDS011;27625;50.422;7.944;2022-07-05T05:09:56;4.90;;;3.57;;
2031;SDS011;27625;50.422;7.944;2022-07-05T05:12:27;5.67;;;3.40;;
2031;SDS011;27625;50.422;7.944;2022-07-05T05:15:07;5.70;;;3.33;;
2031;SDS011;27625;50.422;7.944;2022-07-05T05:17:35;5.40;;;4.33;;
2031;SDS011;27625;50.422;7.944;2022-07-05T05:20:05;6.47;;;4.13;;
2031;SDS011;27625;50.422;7.944;2022-07-05T05:22:32;6.60;;;3.90;;
2031;SDS011;27625;50.422;7.944;2022-07-05T05:24:59;5.50;;;4.20;;
2031;SDS011;27625;50.422;7.944;2022-07-05T05:27:25;5.33;;;4.67;;
2031;SDS011;27625;50.422;7.944;2022-07-05T05:29:52;8.90;;;4.70;;
2031;SDS011;27625;50.422;7.944;2022-07-05T05:32:18;6.90;;;4.17;;
2031;SDS011;27625;50.422;7.944;2022-07-05T05:34:44;6.20;;;4.20;;
2031;SDS011;27625;50.422;7.944;2022-07-05T05:37:12;6.60;;;4.10;;
2031;SDS011;27625;50.422;7.944;2022-07-05T05:39:39;7.10;;;4.97;;
2031;SDS011;27625;50.422;7.944;2022-07-05T05:42:05;5.37;;;3.87;;
2031;SDS011;27625;50.422;7.944;2022-07-05T05:44:32;5.40;;;4.27;;
2031;SDS011;27625;50.422;7.944;2022-07-05T05:46:59;5.40;;;4.13;;
2031;SDS011;27625;50.422;7.944;2022-07-05T05:49:25;8.20;;;4.77;;
2031;SDS011;27625;50.422;7.944;2022-07-05T05:51:52;7.10;;;4.30;;
2031;SDS011;27625;50.422;7.944;2022-07-05T05:54:21;5.63;;;4.20;;
2031;SDS011;27625;50.422;7.944;2022-07-05T05:56:47;5.63;;;4.20;;
2031;SDS011;27625;50.422;7.944;2022-07-05T05:59:14;7.77;;;4.63;;
2031;SDS011;27625;50.422;7.944;2022-07-05T06:01:40;7.20;;;4.13;;
2031;SDS011;27625;50.422;7.944;2022-07-05T06:04:07;7.20;;;3.63;;
2031;SDS011;27625;50.422;7.944;2022-07-05T06:06:33;7.40;;;4.27;;
2031;SDS011;27625;50.422;7.944;2022-07-05T06:09:00;6.70;;;4.37;;
2031;SDS011;27625;50.422;7.944;2022-07-05T06:11:28;6.70;;;4.30;;
2031;SDS011;27625;50.422;7.944;2022-07-05T06:13:55;7.20;;;3.80;;
2031;SDS011;27625;50.422;7.944;2022-07-05T06:16:21;5.33;;;3.70;;
2031;SDS011;27625;50.422;7.944;2022-07-05T06:18:48;7.03;;;3.83;;
2031;SDS011;27625;50.422;7.944;2022-07-05T06:21:14;9.20;;;3.80;;
2031;SDS011;27625;50.422;7.944;2022-07-05T06:23:41;6.43;;;4.43;;
2031;SDS011;27625;50.422;7.944;2022-07-05T06:26:07;7.13;;;3.97;;
2031;SDS011;27625;50.422;7.944;2022-07-05T06:28:35;6.63;;;4.40;;
2031;SDS011;27625;50.422;7.944;2022-07-05T06:31:02;5.83;;;3.70;;
2031;SDS011;27625;50.422;7.944;2022-07-05T06:33:28;5.50;;;3.87;;
2031;SDS011;27625;50.422;7.944;2022-07-05T06:35:55;7.10;;;3.77;;
2031;SDS011;27625;50.422;7.944;2022-07-05T06:38:21;5.53;;;3.20;;
2031;SDS011;27625;50.422;7.944;2022-07-05T06:40:48;7.43;;;3.53;;
2031;SDS011;27625;50.422;7.944;2022-07-05T06:43:14;9.27;;;3.47;;
2031;SDS011;27625;50.422;7.944;2022-07-05T06:45:43;6.63;;;3.67;;
2031;SDS011;27625;50.422;7.944;2022-07-05T06:48:10;4.40;;;3.07;;
2031;SDS011;27625;50.422;7.944;2022-07-05T06:50:38;6.70;;;3.20;;
2031;SDS011;27625;50.422;7.944;2022-07-05T06:53:05;7.67;;;3.37;;
2031;SDS011;27625;50.422;7.944;2022-07-05T06:55:32;4.60;;;3.27;;
2031;SDS011;27625;50.422;7.944;2022-07-05T06:57:59;8.43;;;3.40;;
2031;SDS011;27625;50.422;7.944;2022-07-05T07:00:26;5.47;;;3.53;;
2031;SDS011;27625;50.422;7.944;2022-07-05T07:02:54;5.03;;;3.20;;
2031;SDS011;27625;50.422;7.944;2022-07-05T07:05:21;5.43;;;2.80;;
2031;SDS011;27625;50.422;7.944;2022-07-05T07:07:48;5.53;;;3.30;;
2031;SDS011;27625;50.422;7.944;2022-07-05T07:10:32;4.07;;;2.90;;
2031;SDS011;27625;50.422;7.944;2022-07-05T07:12:58;9.93;;;3.33;;
2031;SDS011;27625;50.422;7.944;2022-07-05T07:15:25;7.70;;;3.77;;
2031;SDS011;27625;50.422;7.944;2022-07-05T07:17:51;5.13;;;2.97;;
2031;SDS011;27625;50.422;7.944;2022-07-05T07:20:19;4.53;;;3.13;;
2031;SDS011;27625;50.422;7.944;2022-07-05T07:22:46;7.30;;;3.27;;
2031;SDS011;27625;50.422;7.944;2022-07-05T07:25:12;6.13;;;2.90;;
2031;SDS011;27625;50.422;7.944;2022-07-05T07:27:42;8.87;;;3.70;;
2031;SDS011;27625;50.422;7.944;2022-07-05T07:30:10;5.70;;;3.10;;
2031;SDS011;27625;50.422;7.944;2022-07-05T07:32:37;4.00;;;3.13;;
2031;SDS011;27625;50.422;7.944;2022-07-05T07:35:04;4.30;;;2.70;;
2031;SDS011;27625;50.422;7.944;2022-07-05T07:37:33;4.97;;;3.00;;
2031;SDS011;27625;50.422;7.944;2022-07-05T07:39:59;5.77;;;3.67;;
2031;SDS011;27625;50.422;7.944;2022-07-05T07:42:26;5.03;;;2.97;;
2031;SDS011;27625;50.422;7.944;2022-07-05T07:44:53;5.70;;;3.10;;
2031;SDS011;27625;50.422;7.944;2022-07-05T07:47:20;5.80;;;3.40;;
2031;SDS011;27625;50.422;7.944;2022-07-05T07:49:47;4.33;;;3.20;;
2031;SDS011;27625;50.422;7.944;2022-07-05T07:52:14;5.27;;;3.10;;
2031;SDS011;27625;50.422;7.944;2022-07-05T07:54:42;4.87;;;3.00;;
2031;SDS011;27625;50.422;7.944;2022-07-05T07:57:08;4.63;;;3.37;;
2031;SDS011;27625;50.422;7.944;2022-07-05T07:59:35;4.67;;;3.27;;
2031;SDS011;27625;50.422;7.944;2022-07-05T08:02:01;4.00;;;2.83;;
2031;SDS011;27625;50.422;7.944;2022-07-05T08:04:28;7.70;;;3.00;;
2031;SDS011;27625;50.422;7.944;2022-07-05T08:06:54;4.40;;;3.20;;
2031;SDS011;27625;50.422;7.944;2022-07-05T08:09:21;5.37;;;2.63;;
2031;SDS011;27625;50.422;7.944;2022-07-05T08:11:48;4.80;;;2.80;;
2031;SDS011;27625;50.422;7.944;2022-07-05T08:14:15;6.57;;;2.80;;
2031;SDS011;27625;50.422;7.944;2022-07-05T08:16:42;5.03;;;3.07;;
2031;SDS011;27625;50.422;7.944;2022-07-05T08:19:08;6.10;;;2.60;;
2031;SDS011;27625;50.422;7.944;2022-07-05T08:21:52;5.17;;;2.97;;
2031;SDS011;27625;50.422;7.944;2022-07-05T08:24:19;7.57;;;3.20;;
2031;SDS011;27625;50.422;7.944;2022-07-05T08:26:45;7.23;;;3.23;;
2031;SDS011;27625;50.422;7.944;2022-07-05T08:29:13;5.77;;;3.30;;
2031;SDS011;27625;50.422;7.944;2022-07-05T08:31:40;6.07;;;3.77;;
2031;SDS011;27625;50.422;7.944;2022-07-05T08:34:07;6.23;;;3.30;;
2031;SDS011;27625;50.422;7.944;2022-07-05T08:36:34;6.03;;;2.97;;
2031;SDS011;27625;50.422;7.944;2022-07-05T08:39:01;8.43;;;3.70;;
2031;SDS011;27625;50.422;7.944;2022-07-05T08:41:27;4.73;;;3.50;;
2031;SDS011;27625;50.422;7.944;2022-07-05T08:43:54;5.50;;;4.00;;
2031;SDS011;27625;50.422;7.944;2022-07-05T08:46:25;5.87;;;3.47;;
2031;SDS011;27625;50.422;7.944;2022-07-05T08:48:51;5.17;;;3.70;;
2031;SDS011;27625;50.422;7.944;2022-07-05T08:51:19;4.77;;;3.33;;
2031;SDS011;27625;50.422;7.944;2022-07-05T08:53:46;4.00;;;3.50;;
2031;SDS011;27625;50.422;7.944;2022-07-05T08:56:13;4.47;;;3.40;;
2031;SDS011;27625;50.422;7.944;2022-07-05T08:58:40;4.80;;;3.60;;
2031;SDS011;27625;50.422;7.944;2022-07-05T09:01:11;6.40;;;4.23;;
2031;SDS011;27625;50.422;7.944;2022-07-05T09:03:41;4.63;;;3.53;;
2031;SDS011;27625;50.422;7.944;2022-07-05T09:06:09;6.30;;;3.40;;
2031;SDS011;27625;50.422;7.944;2022-07-05T09:08:37;4.83;;;3.37;;
2031;SDS011;27625;50.422;7.944;2022-07-05T09:11:05;5.30;;;3.50;;
2031;SDS011;27625;50.422;7.944;2022-07-05T09:13:33;6.13;;;3.73;;
2031;SDS011;27625;50.422;7.944;2022-07-05T09:15:59;5.30;;;3.23;;
2031;SDS011;27625;50.422;7.944;2022-07-05T09:18:40;7.20;;;3.40;;
2031;SDS011;27625;50.422;7.944;2022-07-05T09:21:11;4.00;;;3.10;;
2031;SDS011;27625;50.422;7.944;2022-07-05T09:23:39;6.87;;;3.70;;
2031;SDS011;27625;50.422;7.944;2022-07-05T09:26:05;5.57;;;3.77;;
2031;SDS011;27625;50.422;7.944;2022-07-05T09:28:32;5.80;;;3.13;;
2031;SDS011;27625;50.422;7.944;2022-07-05T09:30:58;4.73;;;2.80;;
2031;SDS011;27625;50.422;7.944;2022-07-05T09:33:25;8.73;;;2.97;;
2031;SDS011;27625;50.422;7.944;2022-07-05T09:35:53;4.67;;;2.80;;
2031;SDS011;27625;50.422;7.944;2022-07-05T09:38:22;4.53;;;3.20;;
2031;SDS011;27625;50.422;7.944;2022-07-05T09:40:50;6.60;;;2.70;;
2031;SDS011;27625;50.422;7.944;2022-07-05T09:43:17;6.60;;;3.10;;
2031;SDS011;27625;50.422;7.944;2022-07-05T09:45:52;6.60;;;3.00;;
2031;SDS011;27625;50.422;7.944;2022-07-05T09:48:22;5.83;;;3.23;;
2031;SDS011;27625;50.422;7.944;2022-07-05T09:50:49;5.47;;;2.70;;
2031;SDS011;27625;50.422;7.944;2022-07-05T09:53:17;4.43;;;2.87;;
2031;SDS011;27625;50.422;7.944;2022-07-05T09:55:59;5.60;;;3.00;;
2031;SDS011;27625;50.422;7.944;2022-07-05T09:58:26;5.37;;;3.57;;
2031;SDS011;27625;50.422;7.944;2022-07-05T10:00:53;5.37;;;3.13;;
2031;SDS011;27625;50.422;7.944;2022-07-05T10:03:21;5.73;;;3.10;;
2031;SDS011;27625;50.422;7.944;2022-07-05T10:05:47;7.00;;;3.67;;
2031;SDS011;27625;50.422;7.944;2022-07-05T10:08:14;5.07;;;3.30;;
2031;SDS011;27625;50.422;7.944;2022-07-05T10:10:43;4.77;;;3.57;;
2031;SDS011;27625;50.422;7.944;2022-07-05T10:13:10;6.50;;;3.63;;
2031;SDS011;27625;50.422;7.944;2022-07-05T10:15:36;8.23;;;3.60;;
2031;SDS011;27625;50.422;7.944;2022-07-05T10:18:03;7.10;;;3.40;;
2031;SDS011;27625;50.422;7.944;2022-07-05T10:20:32;5.93;;;3.63;;
2031;SDS011;27625;50.422;7.944;2022-07-05T10:23:01;4.57;;;3.70;;
2031;SDS011;27625;50.422;7.944;2022-07-05T10:25:28;4.67;;;4.10;;
2031;SDS011;27625;50.422;7.944;2022-07-05T10:27:56;4.90;;;3.50;;
2031;SDS011;27625;50.422;7.944;2022-07-05T10:30:23;4.60;;;3.20;;
2031;SDS011;27625;50.422;7.944;2022-07-05T10:32:50;4.37;;;3.13;;
2031;SDS011;27625;50.422;7.944;2022-07-05T10:35:17;3.60;;;3.10;;
2031;SDS011;27625;50.422;7.944;2022-07-05T10:37:45;6.47;;;3.87;;
2031;SDS011;27625;50.422;7.944;2022-07-05T10:40:12;5.03;;;3.30;;
2031;SDS011;27625;50.422;7.944;2022-07-05T10:42:39;6.23;;;3.40;;
2031;SDS011;27625;50.422;7.944;2022-07-05T10:48:12;6.80;;;3.67;;
2031;SDS011;27625;50.422;7.944;2022-07-05T10:50:47;8.57;;;4.40;;
2031;SDS011;27625;50.422;7.944;2022-07-05T10:53:15;12.03;;;3.93;;
2031;SDS011;27625;50.422;7.944;2022-07-05T10:55:50;10.80;;;4.00;;
2031;SDS011;27625;50.422;7.944;2022-07-05T10:58:28;5.27;;;3.23;;
2031;SDS011;27625;50.422;7.944;2022-07-05T11:04:15;6.60;;;3.40;;
2031;SDS011;27625;50.422;7.944;2022-07-05T11:06:55;5.87;;;3.37;;
2031;SDS011;27625;50.422;7.944;2022-07-05T11:09:22;5.10;;;3.63;;
2031;SDS011;27625;50.422;7.944;2022-07-05T11:14:45;8.50;;;3.87;;
2031;SDS011;27625;50.422;7.944;2022-07-05T11:17:13;3.90;;;3.50;;
2031;SDS011;27625;50.422;7.944;2022-07-05T11:23:03;8.50;;;2.73;;
2031;SDS011;27625;50.422;7.944;2022-07-05T11:25:35;5.60;;;3.53;;
2031;SDS011;27625;50.422;7.944;2022-07-05T11:28:06;6.87;;;3.33;;
2031;SDS011;27625;50.422;7.944;2022-07-05T11:30:52;4.53;;;3.20;;
2031;SDS011;27625;50.422;7.944;2022-07-05T11:33:30;5.77;;;3.73;;
2031;SDS011;27625;50.422;7.944;2022-07-05T11:36:06;5.10;;;3.07;;
2031;SDS011;27625;50.422;7.944;2022-07-05T11:41:32;5.00;;;3.30;;
2031;SDS011;27625;50.422;7.944;2022-07-05T11:43:58;5.70;;;3.40;;
2031;SDS011;27625;50.422;7.944;2022-07-05T11:46:25;6.43;;;3.60;;
2031;SDS011;27625;50.422;7.944;2022-07-05T11:48:52;6.03;;;3.40;;
2031;SDS011;27625;50.422;7.944;2022-07-05T11:51:21;3.87;;;3.47;;
2031;SDS011;27625;50.422;7.944;2022-07-05T11:53:47;5.20;;;3.30;;
2031;SDS011;27625;50.422;7.944;2022-07-05T11:56:14;3.80;;;3.10;;
2031;SDS011;27625;50.422;7.944;2022-07-05T11:58:40;4.73;;;3.67;;
2031;SDS011;27625;50.422;7.944;2022-07-05T12:01:07;4.50;;;3.67;;
2031;SDS011;27625;50.422;7.944;2022-07-05T12:03:33;5.50;;;3.40;;
2031;SDS011;27625;50.422;7.944;2022-07-05T12:06:10;6.37;;;3.40;;
2031;SDS011;27625;50.422;7.944;2022-07-05T12:08:39;4.30;;;3.50;;
2031;SDS011;27625;50.422;7.944;2022-07-05T12:11:05;4.70;;;3.60;;
2031;SDS011;27625;50.422;7.944;2022-07-05T12:13:50;7.10;;;3.30;;
2031;SDS011;27625;50.422;7.944;2022-07-05T12:16:17;3.63;;;2.70;;
2031;SDS011;27625;50.422;7.944;2022-07-05T12:18:48;4.33;;;3.10;;
2031;SDS011;27625;50.422;7.944;2022-07-05T12:21:15;5.03;;;3.37;;
2031;SDS011;27625;50.422;7.944;2022-07-05T12:23:43;6.47;;;3.40;;
2031;SDS011;27625;50.422;7.944;2022-07-05T12:26:10;4.63;;;3.30;;
2031;SDS011;27625;50.422;7.944;2022-07-05T12:28:37;4.20;;;3.23;;
2031;SDS011;27625;50.422;7.944;2022-07-05T12:31:14;4.10;;;3.20;;
2031;SDS011;27625;50.422;7.944;2022-07-05T12:33:46;4.40;;;3.30;;
2031;SDS011;27625;50.422;7.944;2022-07-05T12:36:12;4.93;;;3.20;;
2031;SDS011;27625;50.422;7.944;2022-07-05T12:38:39;5.93;;;3.60;;
2031;SDS011;27625;50.422;7.944;2022-07-05T12:41:08;8.90;;;3.70;;
2031;SDS011;27625;50.422;7.944;2022-07-05T12:43:47;4.57;;;3.40;;
2031;SDS011;27625;50.422;7.944;2022-07-05T12:46:15;6.90;;;4.20;;
2031;SDS011;27625;50.422;7.944;2022-07-05T12:48:41;4.43;;;3.50;;
2031;SDS011;27625;50.422;7.944;2022-07-05T12:51:08;4.10;;;3.47;;
2031;SDS011;27625;50.422;7.944;2022-07-05T12:53:43;6.00;;;3.67;;
2031;SDS011;27625;50.422;7.944;2022-07-05T12:56:29;5.00;;;3.73;;
2031;SDS011;27625;50.422;7.944;2022-07-05T12:59:13;5.53;;;3.93;;
2031;SDS011;27625;50.422;7.944;2022-07-05T13:01:40;4.93;;;3.77;;
2031;SDS011;27625;50.422;7.944;2022-07-05T13:04:08;5.07;;;3.83;;
2031;SDS011;27625;50.422;7.944;2022-07-05T13:06:39;6.70;;;3.40;;
2031;SDS011;27625;50.422;7.944;2022-07-05T13:09:13;5.70;;;3.37;;
2031;SDS011;27625;50.422;7.944;2022-07-05T13:11:44;5.57;;;3.53;;
2031;SDS011;27625;50.422;7.944;2022-07-05T13:14:11;6.70;;;3.90;;
2031;SDS011;27625;50.422;7.944;2022-07-05T13:16:37;4.83;;;4.10;;
2031;SDS011;27625;50.422;7.944;2022-07-05T13:19:07;5.33;;;3.97;;
2031;SDS011;27625;50.422;7.944;2022-07-05T13:21:35;4.63;;;3.47;;
2031;SDS011;27625;50.422;7.944;2022-07-05T13:24:01;5.30;;;3.80;;
2031;SDS011;27625;50.422;7.944;2022-07-05T13:26:28;5.67;;;3.53;;
2031;SDS011;27625;50.422;7.944;2022-07-05T13:28:56;7.30;;;3.50;;
2031;SDS011;27625;50.422;7.944;2022-07-05T13:31:22;3.60;;;3.20;;
2031;SDS011;27625;50.422;7.944;2022-07-05T13:33:49;6.33;;;4.00;;
2031;SDS011;27625;50.422;7.944;2022-07-05T13:36:15;4.37;;;3.43;;
2031;SDS011;27625;50.422;7.944;2022-07-05T13:38:42;4.00;;;3.20;;
2031;SDS011;27625;50.422;7.944;2022-07-05T13:41:09;9.07;;;3.47;;
2031;SDS011;27625;50.422;7.944;2022-07-05T13:43:35;4.60;;;3.07;;
2031;SDS011;27625;50.422;7.944;2022-07-05T13:46:04;5.00;;;3.80;;
2031;SDS011;27625;50.422;7.944;2022-07-05T13:48:30;7.53;;;3.77;;
2031;SDS011;27625;50.422;7.944;2022-07-05T13:50:57;6.87;;;3.63;;
2031;SDS011;27625;50.422;7.944;2022-07-05T13:53:23;3.73;;;3.33;;
2031;SDS011;27625;50.422;7.944;2022-07-05T13:55:50;4.90;;;3.23;;
2031;SDS011;27625;50.422;7.944;2022-07-05T13:58:16;8.50;;;3.33;;
2031;SDS011;27625;50.422;7.944;2022-07-05T14:00:42;9.30;;;3.40;;
2031;SDS011;27625;50.422;7.944;2022-07-05T14:03:10;4.30;;;3.20;;
2031;SDS011;27625;50.422;7.944;2022-07-05T14:05:37;7.30;;;3.60;;
2031;SDS011;27625;50.422;7.944;2022-07-05T14:08:03;6.03;;;3.23;;
2031;SDS011;27625;50.422;7.944;2022-07-05T14:10:30;4.87;;;3.23;;
2031;SDS011;27625;50.422;7.944;2022-07-05T14:12:56;5.20;;;3.00;;
2031;SDS011;27625;50.422;7.944;2022-07-05T14:15:23;4.73;;;3.00;;
2031;SDS011;27625;50.422;7.944;2022-07-05T14:17:49;4.17;;;3.23;;
2031;SDS011;27625;50.422;7.944;2022-07-05T14:20:17;4.60;;;2.80;;
2031;SDS011;27625;50.422;7.944;2022-07-05T14:22:46;5.33;;;3.30;;
2031;SDS011;27625;50.422;7.944;2022-07-05T14:25:14;6.27;;;2.97;;
2031;SDS011;27625;50.422;7.944;2022-07-05T14:27:40;4.80;;;3.00;;
2031;SDS011;27625;50.422;7.944;2022-07-05T14:30:08;7.80;;;2.87;;
2031;SDS011;27625;50.422;7.944;2022-07-05T14:32:35;5.17;;;2.80;;
2031;SDS011;27625;50.422;7.944;2022-07-05T14:35:02;6.30;;;3.20;;
2031;SDS011;27625;50.422;7.944;2022-07-05T14:37:31;5.80;;;2.80;;
2031;SDS011;27625;50.422;7.944;2022-07-05T14:39:57;3.80;;;2.70;;
2031;SDS011;27625;50.422;7.944;2022-07-05T14:42:26;6.73;;;2.80;;
2031;SDS011;27625;50.422;7.944;2022-07-05T14:44:53;3.80;;;2.80;;
2031;SDS011;27625;50.422;7.944;2022-07-05T14:47:19;4.10;;;2.90;;
2031;SDS011;27625;50.422;7.944;2022-07-05T14:49:47;4.20;;;3.00;;
2031;SDS011;27625;50.422;7.944;2022-07-05T14:52:14;4.90;;;2.70;;
2031;SDS011;27625;50.422;7.944;2022-07-05T14:54:41;5.43;;;2.83;;
2031;SDS011;27625;50.422;7.944;2022-07-05T14:57:08;4.10;;;3.10;;
2031;SDS011;27625;50.422;7.944;2022-07-05T14:59:35;4.77;;;3.40;;
2031;SDS011;27625;50.422;7.944;2022-07-05T15:02:01;5.10;;;3.10;;
2031;SDS011;27625;50.422;7.944;2022-07-05T15:04:30;4.03;;;2.93;;
2031;SDS011;27625;50.422;7.944;2022-07-05T15:06:56;6.07;;;3.20;;
2031;SDS011;27625;50.422;7.944;2022-07-05T15:09:23;4.07;;;3.03;;
2031;SDS011;27625;50.422;7.944;2022-07-05T15:11:51;5.17;;;3.20;;
2031;SDS011;27625;50.422;7.944;2022-07-05T15:14:17;5.77;;;3.30;;
2031;SDS011;27625;50.422;7.944;2022-07-05T15:16:45;4.17;;;3.07;;
2031;SDS011;27625;50.422;7.944;2022-07-05T15:19:11;3.37;;;2.70;;
2031;SDS011;27625;50.422;7.944;2022-07-05T15:21:38;4.57;;;2.90;;